Time;durP1;ratioP1;P1;durP2;ratioP2;P2;SDS_P1;SDS_P2;PMS_P1;PMS_P2;Temp;Humidity;BMP_temperature;BMP_pressure;BME280_temperature;BME280_humidity;BME280_pressure;Samples;Min_cycle;Max_cycle;Signal;HPM_P1;HPM_P2
2024/01/11 00:25:44;;;;;;;26.50;11.43;;;;;;;;;;4871198;29;20410;-76
2024/01/11 00:48:07;;;;;;;;;;;;;;;;;;4854488;29;20068;-76
2024/01/11 03:31:48;;;;;;;19.50;10.65;;;;;;;;;;4784921;30;20125;-77
2024/01/11 04:59:51;;;;;;;37.25;13.88;;;;;;;;;;4768561;30;20173;-75
2024/01/11 05:14:01;;;;;;;;;;;;;;;;;;;;;
2024/01/11 05:25:12;;;;;;;38.28;13.77;;;;;;;;;;4810593;29;20077;-75
2024/01/11 05:27:41;;;;;;;31.40;13.32;;;;;;;;;;4763948;30;20055;-76
2024/01/11 05:37:39;;;;;;;34.42;14.68;;;;;;;;;;4789181;29;20136;-76
2024/01/11 05:41:10;;;;;;;53.05;18.63;;;;;;;;;;4801193;29;20054;-75
2024/01/11 05:44:15;;;;;;;33.05;14.60;;;;;;;;;;4807180;29;20095;-75
2024/01/11 05:47:39;;;;;;;;;;;;;;;;;;;;;
2024/01/11 05:54:20;;;;;;;31.08;12.65;;;;;;;;;;4914045;29;20062;-76
2024/01/11 05:57:36;;;;;;;32.03;13.05;;;;;;;;;;4909261;29;20059;-75
2024/01/11 06:01:03;;;;;;;50.58;14.30;;;;;;;;;;4888268;29;20069;-75
2024/01/11 06:03:55;;;;;;;31.52;12.30;;;;;;;;;;4890539;29;20052;-75
2024/01/11 06:07:14;;;;;;;52.05;14.77;;;;;;;;;;4893885;29;20392;-76
2024/01/11 06:10:02;;;;;;;26.20;12.95;;;;;;;;;;4948849;28;20047;-75
2024/01/11 06:13:27;;;;;;;43.08;14.85;;;;;;;;;;4953858;29;20101;-75
2024/01/11 06:20:07;;;;;;;21.88;11.68;;;;;;;;;;4834621;29;20534;-75
2024/01/11 06:27:06;;;;;;;;;;;;;;;;;;;;;
2024/01/11 06:30:32;;;;;;;27.70;12.65;;;;;;;;;;4771330;29;20438;-75
2024/01/11 06:40:10;;;;;;;32.95;14.35;;;;;;;;;;4725669;30;20645;-75
2024/01/11 06:47:06;;;;;;;20.33;9.77;;;;;;;;;;4801381;29;20051;-79
2024/01/11 06:50:45;;;;;;;41.20;10.93;;;;;;;;;;4804685;29;20102;-78
2024/01/11 06:53:42;;;;;;;22.00;10.30;;;;;;;;;;4804965;29;20807;-79
2024/01/11 07:07:45;;;;;;;33.20;11.32;;;;;;;;;;4950039;29;20304;-80
2024/01/11 07:15:38;;;;;;;24.10;10.02;;;;;;;;;;4857334;29;20089;-79
2024/01/11 07:18:40;;;;;;;20.85;10.88;;;;;;;;;;4828967;29;20466;-79
2024/01/11 07:22:04;;;;;;;25.38;14.75;;;;;;;;;;4828713;29;20095;-79
2024/01/11 07:24:56;;;;;;;30.58;15.15;;;;;;;;;;4882396;29;20052;-78
2024/01/11 07:36:05;;;;;;;26.80;14.82;;;;;;;;;;4857065;29;20060;-78
2024/01/11 07:42:56;;;;;;;46.28;19.27;;;;;;;;;;4827282;29;20156;-78
2024/01/11 07:45:25;;;;;;;28.45;14.65;;;;;;;;;;4800170;29;20050;-78
2024/01/11 07:48:41;;;;;;;32.55;16.13;;;;;;;;;;4803948;29;20378;-78
2024/01/11 07:51:15;;;;;;;46.72;20.63;;;;;;;;;;4760786;29;20419;-77
2024/01/11 07:54:09;;;;;;;37.90;18.52;;;;;;;;;;4764696;30;20511;-78
2024/01/11 07:56:41;;;;;;;43.75;17.98;;;;;;;;;;4908828;29;20489;-79
2024/01/11 08:00:14;;;;;;;;;;;;;;;;;;;;;
2024/01/11 08:02:59;;;;;;;37.75;15.65;;;;;;;;;;4924322;29;20052;-79
2024/01/11 08:06:18;;;;;;;29.15;14.77;;;;;;;;;;4941669;29;20488;-78
2024/01/11 08:09:18;;;;;;;32.83;14.65;;;;;;;;;;4905071;29;20529;-76
2024/01/11 08:15:19;;;;;;;26.00;12.65;;;;;;;;;;4891405;29;20127;-78
2024/01/11 08:18:15;;;;;;;26.80;14.63;;;;;;;;;;4895043;29;20053;-78
2024/01/11 08:20:56;;;;;;;39.47;14.88;;;;;;;;;;4901104;29;20066;-76
2024/01/11 08:23:33;;;;;;;37.13;18.85;;;;;;;;;;4893989;29;20572;-77
2024/01/11 08:26:15;;;;;;;37.85;15.18;;;;;;;;;;4917462;29;20054;-77
2024/01/11 08:29:30;;;;;;;32.33;14.50;;;;;;;;;;4934559;29;20044;-78
2024/01/11 08:32:22;;;;;;;25.30;12.13;;;;;;;;;;4927659;29;20035;-76
2024/01/11 08:35:32;;;;;;;23.65;13.40;;;;;;;;;;4918072;29;20548;-76
2024/01/11 08:38:18;;;;;;;22.55;11.88;;;;;;;;;;4926805;29;20102;-80
2024/01/11 08:41:57;;;;;;;20.88;11.63;;;;;;;;;;4846452;29;20053;-77
2024/01/11 08:56:40;;;;;;;28.13;13.05;;;;;;;;;;4757165;30;20082;-80
2024/01/11 08:59:13;;;;;;;29.65;14.00;;;;;;;;;;4796975;29;20136;-81
2024/01/11 09:02:20;;;;;;;21.13;12.32;;;;;;;;;;4801140;29;20089;-80
2024/01/11 09:04:51;;;;;;;22.70;13.27;;;;;;;;;;4830896;29;20062;-80
2024/01/11 09:10:47;;;;;;;23.77;12.80;;;;;;;;;;4875224;29;20053;-80
2024/01/11 09:13:50;;;;;;;25.10;13.55;;;;;;;;;;4879316;29;20049;-80
2024/01/11 09:16:21;;;;;;;26.73;11.93;;;;;;;;;;4906385;29;20043;-80
2024/01/11 09:18:52;;;;;;;23.08;12.13;;;;;;;;;;4879584;29;20044;-79
2024/01/11 09:21:38;;;;;;;;;;;;;;;;;;;;;
2024/01/11 09:25:42;;;;;;;21.67;11.02;;;;;;;;;;4836539;29;20137;-80
2024/01/11 09:28:24;;;;;;;;;;;;;;;;;;;;;
2024/01/11 09:31:17;;;;;;;25.33;12.43;;;;;;;;;;4863563;29;20044;-80
2024/01/11 09:33:48;;;;;;;26.38;11.50;;;;;;;;;;4930485;29;20058;-80
2024/01/11 09:41:07;;;;;;;20.50;11.10;;;;;;;;;;4950278;29;20122;-80
2024/01/11 09:44:41;;;;;;;21.98;11.50;;;;;;;;;;4937616;29;20035;-83
2024/01/11 10:06:27;;;;;;;;;;;;;;;;;;;;;
2024/01/11 10:17:50;;;;;;;19.65;9.02;;;;;;;;;;4817774;29;20098;-79
2024/01/11 10:21:28;;;;;;;20.90;10.57;;;;;;;;;;4774341;29;20047;-79
2024/01/11 10:25:34;;;;;;;;;;;;;;;;;;;;;
2024/01/11 10:48:33;;;;;;;23.77;11.27;;;;;;;;;;4660705;30;20144;-80
2024/01/11 10:54:36;;;;;;;25.50;12.15;;;;;;;;;;4688806;30;20084;-81
2024/01/11 11:01:24;;;;;;;18.80;10.38;;;;;;;;;;4788854;29;20442;-80
2024/01/11 11:09:17;;;;;;;;;;;;;;;;;;;;;
2024/01/11 11:12:21;;;;;;;24.40;11.32;;;;;;;;;;4805812;29;20053;-80
2024/01/11 11:18:07;;;;;;;23.02;11.60;;;;;;;;;;4909547;29;20509;-80
2024/01/11 11:21:51;;;;;;;23.08;13.23;;;;;;;;;;4892693;29;20607;-80
2024/01/11 11:25:32;;;;;;;16.98;10.48;;;;;;;;;;4837905;29;20093;-81
2024/01/11 11:40:04;;;;;;;26.27;14.27;;;;;;;;;;4948436;29;20044;-79
2024/01/11 11:42:26;;;;;;;28.65;15.98;;;;;;;;;;4909713;29;20134;-79
2024/01/11 11:44:54;;;;;;;25.52;15.10;;;;;;;;;;4933745;29;20058;-77
2024/01/11 11:47:47;;;;;;;34.30;16.15;;;;;;;;;;4934191;29;20042;-79
2024/01/11 11:50:13;;;;;;;27.25;15.73;;;;;;;;;;4924163;29;20051;-79
2024/01/11 11:56:40;;;;;;;27.02;14.23;;;;;;;;;;4857859;29;20359;-79
2024/01/11 11:59:22;;;;;;;;;;;;;;;;;;;;;
2024/01/11 12:01:55;;;;;;;29.40;14.73;;;;;;;;;;4952195;29;20134;-79
2024/01/11 12:05:12;;;;;;;39.25;15.85;;;;;;;;;;4954940;29;20047;-79
2024/01/11 12:08:17;;;;;;;27.77;15.00;;;;;;;;;;4925162;29;20089;-79
2024/01/11 12:14:40;;;;;;;21.17;13.23;;;;;;;;;;4944467;29;20034;-79
2024/01/11 12:23:34;;;;;;;24.92;12.82;;;;;;;;;;4937211;29;20043;-78
2024/01/11 12:26:07;;;;;;;23.10;13.82;;;;;;;;;;4936094;29;20100;-78
2024/01/11 12:28:50;;;;;;;;;;;;;;;;;;;;;
2024/01/11 12:31:46;;;;;;;17.30;11.10;;;;;;;;;;4936710;29;20325;-79
2024/01/11 12:34:33;;;;;;;17.25;9.80;;;;;;;;;;4952502;29;20239;-79
2024/01/11 12:37:05;;;;;;;14.50;9.43;;;;;;;;;;4950199;28;20039;-79
2024/01/11 12:39:31;;;;;;;14.88;8.52;;;;;;;;;;4938563;29;20039;-79
2024/01/11 12:41:58;;;;;;;21.55;10.18;;;;;;;;;;4956376;29;20019;-77
2024/01/11 12:44:32;;;;;;;23.67;10.70;;;;;;;;;;4955663;29;20035;-78
2024/01/11 12:46:59;;;;;;;19.23;9.88;;;;;;;;;;4955951;29;20035;-78
2024/01/11 12:49:48;;;;;;;13.38;7.55;;;;;;;;;;4938997;29;20051;-78
2024/01/11 12:52:25;;;;;;;19.98;8.70;;;;;;;;;;4956180;29;20039;-78
2024/01/11 12:58:09;;;;;;;12.55;7.97;;;;;;;;;;4960159;28;20500;-80
2024/01/11 13:00:40;;;;;;;10.80;7.00;;;;;;;;;;4938528;29;20086;-80
2024/01/11 13:03:12;;;;;;;11.63;7.85;;;;;;;;;;4970329;28;20390;-80
2024/01/11 13:05:39;;;;;;;24.55;9.95;;;;;;;;;;4954931;29;20604;-77
2024/01/11 13:08:09;;;;;;;21.80;10.13;;;;;;;;;;4955090;29;20400;-77
2024/01/11 13:10:36;;;;;;;29.23;9.90;;;;;;;;;;4955171;28;20428;-77
2024/01/11 13:13:04;;;;;;;27.08;9.70;;;;;;;;;;4970057;28;20066;-78
2024/01/11 13:15:34;;;;;;;15.55;9.10;;;;;;;;;;4955939;29;20497;-78
2024/01/11 13:18:01;;;;;;;15.98;9.55;;;;;;;;;;4955841;29;20034;-79
2024/01/11 13:20:29;;;;;;;22.17;9.85;;;;;;;;;;4955086;29;20409;-78
2024/01/11 13:23:19;;;;;;;14.60;9.20;;;;;;;;;;4937926;29;20038;-80
2024/01/11 13:25:50;;;;;;;16.52;9.15;;;;;;;;;;4954642;28;20035;-78
2024/01/11 13:28:18;;;;;;;17.55;9.70;;;;;;;;;;4955574;29;20121;-81
2024/01/11 13:30:48;;;;;;;13.55;9.02;;;;;;;;;;4955099;29;20542;-81
2024/01/11 13:33:17;;;;;;;15.30;9.43;;;;;;;;;;4969691;28;20031;-78
2024/01/11 13:35:44;;;;;;;42.28;21.90;;;;;;;;;;4954851;29;20035;-79
2024/01/11 13:38:32;;;;;;;28.42;14.18;;;;;;;;;;4937748;29;20124;-78
2024/01/11 13:41:09;;;;;;;27.95;14.43;;;;;;;;;;4937045;29;20043;-80
2024/01/11 13:44:28;;;;;;;29.60;13.95;;;;;;;;;;4954893;29;20043;-80
2024/01/11 13:46:30;;;;;;;23.67;12.43;;;;;;;;;;4950257;29;20043;-79
2024/01/11 13:49:02;;;;;;;19.73;11.68;;;;;;;;;;4954449;29;20547;-80
2024/01/11 13:51:31;;;;;;;18.88;10.48;;;;;;;;;;4954384;29;20035;-78
2024/01/11 13:54:01;;;;;;;27.33;11.38;;;;;;;;;;4951710;28;20062;-78
2024/01/11 13:56:59;;;;;;;;;;;;;;;;;;;;;
2024/01/11 13:59:53;;;;;;;20.73;12.30;;;;;;;;;;4948800;29;20054;-78
2024/01/11 14:02:27;;;;;;;21.98;11.70;;;;;;;;;;4953905;29;20076;-79
2024/01/11 14:08:12;;;;;;;20.35;12.90;;;;;;;;;;4953877;29;20591;-78
2024/01/11 14:11:00;;;;;;;19.85;11.40;;;;;;;;;;4952434;29;20039;-78
2024/01/11 14:13:38;;;;;;;21.00;10.63;;;;;;;;;;4953785;29;20062;-78
2024/01/11 14:16:12;;;;;;;16.55;9.98;;;;;;;;;;4952273;29;20122;-77
2024/01/11 14:18:42;;;;;;;17.33;9.48;;;;;;;;;;4954421;29;20058;-78
2024/01/11 14:21:11;;;;;;;17.55;10.18;;;;;;;;;;4936583;29;20035;-77
2024/01/11 14:23:51;;;;;;;21.73;10.45;;;;;;;;;;4953093;28;20038;-78
2024/01/11 14:26:49;;;;;;;23.50;12.93;;;;;;;;;;4953851;28;20070;-78
2024/01/11 14:29:15;;;;;;;19.65;10.25;;;;;;;;;;4939696;29;20481;-78
2024/01/11 14:31:42;;;;;;;17.77;10.30;;;;;;;;;;4936761;29;20037;-78
2024/01/11 14:34:12;;;;;;;20.35;10.75;;;;;;;;;;4953460;29;20066;-78
2024/01/11 14:36:39;;;;;;;21.40;10.90;;;;;;;;;;4953710;29;20031;-78
2024/01/11 14:39:10;;;;;;;23.50;12.90;;;;;;;;;;4953852;29;20031;-77
2024/01/11 14:41:37;;;;;;;27.48;15.43;;;;;;;;;;4936708;29;20139;-79
2024/01/11 14:44:10;;;;;;;22.85;12.90;;;;;;;;;;4953292;29;20043;-81
2024/01/11 14:46:39;;;;;;;34.30;13.85;;;;;;;;;;4953470;29;20046;-80
2024/01/11 14:49:07;;;;;;;25.95;11.82;;;;;;;;;;4936492;28;20027;-80
2024/01/11 14:51:37;;;;;;;19.98;12.02;;;;;;;;;;4953350;29;20039;-81
2024/01/11 14:54:13;;;;;;;19.45;12.18;;;;;;;;;;4966728;28;20063;-80
2024/01/11 14:56:44;;;;;;;27.33;11.35;;;;;;;;;;4953154;29;20030;-74
2024/01/11 14:59:09;;;;;;;22.85;11.68;;;;;;;;;;4963376;28;20030;-73
2024/01/11 15:01:36;;;;;;;20.30;12.05;;;;;;;;;;4971929;28;20114;-75
2024/01/11 15:04:05;;;;;;;26.20;11.40;;;;;;;;;;4938256;28;20047;-75
2024/01/11 15:06:31;;;;;;;20.13;11.40;;;;;;;;;;4971922;28;20559;-75
2024/01/11 15:08:57;;;;;;;20.77;11.43;;;;;;;;;;4939833;28;20119;-74
2024/01/11 15:11:25;;;;;;;23.80;12.23;;;;;;;;;;4972049;28;20041;-74
2024/01/11 15:13:52;;;;;;;18.55;11.25;;;;;;;;;;4987603;28;20045;-75
2024/01/11 15:16:19;;;;;;;26.17;11.65;;;;;;;;;;4955602;28;20447;-76
2024/01/11 15:18:46;;;;;;;22.30;11.50;;;;;;;;;;4972806;28;20039;-75
2024/01/11 15:21:12;;;;;;;23.40;12.80;;;;;;;;;;4972865;28;20043;-76
2024/01/11 15:23:37;;;;;;;23.95;13.40;;;;;;;;;;4955356;28;20031;-75
2024/01/11 15:26:03;;;;;;;25.02;15.88;;;;;;;;;;4987529;28;20045;-74
2024/01/11 15:28:29;;;;;;;23.50;14.70;;;;;;;;;;4955846;28;20034;-75
2024/01/11 15:30:55;;;;;;;28.48;13.45;;;;;;;;;;4973100;28;20515;-77
2024/01/11 15:33:20;;;;;;;29.20;14.82;;;;;;;;;;4971556;28;20381;-75
2024/01/11 15:35:48;;;;;;;37.03;16.65;;;;;;;;;;4958649;28;20065;-75
2024/01/11 15:38:13;;;;;;;32.47;16.63;;;;;;;;;;4976625;28;20041;-77
2024/01/11 15:40:40;;;;;;;33.95;18.58;;;;;;;;;;4969693;28;20479;-76
2024/01/11 15:43:07;;;;;;;36.42;23.50;;;;;;;;;;4956525;29;20077;-74
2024/01/11 15:45:33;;;;;;;30.40;20.33;;;;;;;;;;4955516;29;20078;-78
2024/01/11 15:47:59;;;;;;;25.30;16.02;;;;;;;;;;4971529;28;20497;-77
2024/01/11 15:50:25;;;;;;;24.33;14.48;;;;;;;;;;4956155;29;20033;-75
2024/01/11 15:52:51;;;;;;;25.95;13.85;;;;;;;;;;4970561;28;20023;-76
2024/01/11 15:55:20;;;;;;;23.17;13.65;;;;;;;;;;4955690;28;20039;-75
2024/01/11 15:57:46;;;;;;;24.63;14.52;;;;;;;;;;4955404;29;20129;-75
2024/01/11 16:00:13;;;;;;;22.45;15.32;;;;;;;;;;4955917;29;20027;-75
2024/01/11 16:02:40;;;;;;;32.33;17.75;;;;;;;;;;4938382;29;20047;-75
2024/01/11 16:05:06;;;;;;;30.17;16.40;;;;;;;;;;4954871;29;20114;-74
2024/01/11 16:07:32;;;;;;;27.25;16.40;;;;;;;;;;4955459;29;20039;-75
2024/01/11 16:09:58;;;;;;;26.90;14.75;;;;;;;;;;4955734;28;20396;-76
2024/01/11 16:12:24;;;;;;;29.70;15.15;;;;;;;;;;4955614;29;20039;-76
2024/01/11 16:14:53;;;;;;;27.75;14.07;;;;;;;;;;4938167;29;20054;-74
2024/01/11 16:17:19;;;;;;;33.50;17.67;;;;;;;;;;4955499;29;20023;-75
2024/01/11 16:19:44;;;;;;;48.95;19.05;;;;;;;;;;4955346;29;20377;-74
2024/01/11 16:22:12;;;;;;;36.13;18.15;;;;;;;;;;4955627;29;20035;-75
2024/01/11 16:24:37;;;;;;;38.40;18.85;;;;;;;;;;4952502;28;20038;-74
2024/01/11 16:27:05;;;;;;;30.88;17.20;;;;;;;;;;4954799;29;20467;-74
2024/01/11 16:29:31;;;;;;;25.83;16.17;;;;;;;;;;4954775;29;20327;-76
2024/01/11 16:31:58;;;;;;;34.40;19.92;;;;;;;;;;4954961;29;20110;-75
2024/01/11 16:34:23;;;;;;;37.53;21.35;;;;;;;;;;4954163;29;20043;-76
2024/01/11 16:36:49;;;;;;;40.08;23.25;;;;;;;;;;4969780;28;20271;-74
2024/01/11 16:39:15;;;;;;;40.30;24.23;;;;;;;;;;4954734;28;20034;-74
2024/01/11 16:41:40;;;;;;;37.53;23.13;;;;;;;;;;4955046;29;20124;-74
2024/01/11 16:44:09;;;;;;;49.40;28.10;;;;;;;;;;4953771;29;20027;-76
2024/01/11 16:46:35;;;;;;;39.95;22.50;;;;;;;;;;4968853;28;20401;-75
2024/01/11 16:49:03;;;;;;;32.85;19.50;;;;;;;;;;4954628;29;20035;-76
2024/01/11 16:51:29;;;;;;;37.00;20.42;;;;;;;;;;4954582;29;20130;-75
2024/01/11 16:53:55;;;;;;;44.28;25.55;;;;;;;;;;4954439;29;20447;-75
2024/01/11 16:56:22;;;;;;;47.67;23.58;;;;;;;;;;4953271;28;20042;-75
2024/01/11 16:58:47;;;;;;;36.03;18.83;;;;;;;;;;4954230;29;20039;-75
2024/01/11 17:01:13;;;;;;;28.58;14.88;;;;;;;;;;4954091;29;20453;-75
2024/01/11 17:03:40;;;;;;;26.50;15.75;;;;;;;;;;4953786;29;20101;-75
2024/01/11 17:06:06;;;;;;;32.17;18.23;;;;;;;;;;4954771;29;20497;-76
2024/01/11 17:08:32;;;;;;;32.28;16.98;;;;;;;;;;4954816;29;20067;-75
2024/01/11 17:10:58;;;;;;;33.17;16.73;;;;;;;;;;4954121;29;20045;-75
2024/01/11 17:13:24;;;;;;;36.08;16.98;;;;;;;;;;4937173;29;20054;-76
2024/01/11 17:15:49;;;;;;;28.60;15.98;;;;;;;;;;4954880;29;20063;-75
2024/01/11 17:18:15;;;;;;;31.48;15.88;;;;;;;;;;4953868;28;20031;-74
2024/01/11 17:20:44;;;;;;;37.85;17.65;;;;;;;;;;4954013;29;20062;-75
2024/01/11 17:23:09;;;;;;;38.38;18.38;;;;;;;;;;4953567;29;20034;-75
2024/01/11 17:25:37;;;;;;;34.15;17.80;;;;;;;;;;4937986;28;20043;-75
2024/01/11 17:28:03;;;;;;;38.03;19.40;;;;;;;;;;4953477;29;20114;-76
2024/01/11 17:30:29;;;;;;;34.70;19.63;;;;;;;;;;4954044;29;20023;-76
2024/01/11 17:32:54;;;;;;;49.58;23.45;;;;;;;;;;4936506;29;20416;-73
2024/01/11 17:35:20;;;;;;;38.15;23.05;;;;;;;;;;4935777;29;20181;-74
2024/01/11 17:37:47;;;;;;;49.88;24.92;;;;;;;;;;4954380;29;20015;-72
2024/01/11 17:40:12;;;;;;;54.60;23.42;;;;;;;;;;4936497;29;20039;-75
2024/01/11 17:42:40;;;;;;;42.78;25.90;;;;;;;;;;4953060;29;20035;-77
2024/01/11 17:45:06;;;;;;;47.33;25.00;;;;;;;;;;4954861;28;20043;-74
2024/01/11 17:47:31;;;;;;;48.33;24.65;;;;;;;;;;4952328;28;20053;-75
2024/01/11 17:49:57;;;;;;;47.38;24.70;;;;;;;;;;4954350;29;20027;-74
2024/01/11 17:52:23;;;;;;;60.08;28.20;;;;;;;;;;4953714;29;20372;-74
2024/01/11 17:54:49;;;;;;;49.70;25.33;;;;;;;;;;4957962;28;20023;-74
2024/01/11 17:57:15;;;;;;;44.13;23.80;;;;;;;;;;4952569;28;20035;-73
2024/01/11 17:59:44;;;;;;;49.90;26.73;;;;;;;;;;4953168;29;20034;-78
2024/01/11 18:02:11;;;;;;;46.58;25.75;;;;;;;;;;4967918;28;20492;-78
2024/01/11 18:04:38;;;;;;;48.80;28.42;;;;;;;;;;4935722;29;20035;-78
2024/01/11 18:07:04;;;;;;;51.97;27.50;;;;;;;;;;4953819;28;20030;-78
2024/01/11 18:09:29;;;;;;;61.85;33.65;;;;;;;;;;4953639;29;20050;-78
2024/01/11 18:11:55;;;;;;;62.65;36.72;;;;;;;;;;4935967;29;20051;-78
2024/01/11 18:14:21;;;;;;;73.55;36.28;;;;;;;;;;4953290;29;20110;-79
2024/01/11 18:16:48;;;;;;;71.60;37.00;;;;;;;;;;4960233;28;20027;-79
2024/01/11 18:19:15;;;;;;;39.60;21.50;;;;;;;;;;4953662;29;20037;-79
2024/01/11 18:21:45;;;;;;;64.53;37.13;;;;;;;;;;4936133;28;20515;-79
2024/01/11 18:24:13;;;;;;;72.50;38.65;;;;;;;;;;4937751;28;20439;-79
2024/01/11 18:26:40;;;;;;;57.53;33.50;;;;;;;;;;4952960;29;20124;-78
2024/01/11 18:29:06;;;;;;;62.05;29.58;;;;;;;;;;4953498;29;20031;-79
2024/01/11 18:31:32;;;;;;;60.28;26.73;;;;;;;;;;4953020;29;20086;-79
2024/01/11 18:33:58;;;;;;;34.90;17.58;;;;;;;;;;4953259;28;20043;-78
2024/01/11 18:36:26;;;;;;;36.20;19.67;;;;;;;;;;4935804;28;20045;-78
2024/01/11 18:38:57;;;;;;;40.25;19.77;;;;;;;;;;4951222;29;20568;-80
2024/01/11 18:41:24;;;;;;;38.92;20.13;;;;;;;;;;4952886;29;20055;-79
2024/01/11 18:43:50;;;;;;;32.38;17.80;;;;;;;;;;4950783;28;20065;-80
2024/01/11 18:46:16;;;;;;;33.55;19.60;;;;;;;;;;4985307;28;20476;-76
2024/01/11 18:48:42;;;;;;;32.50;17.45;;;;;;;;;;4993088;28;20527;-77
2024/01/11 18:51:09;;;;;;;38.90;21.40;;;;;;;;;;4991464;28;20060;-77
2024/01/11 18:53:37;;;;;;;51.08;23.55;;;;;;;;;;5005984;28;20042;-78
2024/01/11 18:56:12;;;;;;;38.05;20.60;;;;;;;;;;5005645;28;20476;-77
2024/01/11 18:58:38;;;;;;;44.65;24.67;;;;;;;;;;4974081;28;20117;-77
2024/01/11 19:01:07;;;;;;;50.00;23.42;;;;;;;;;;4973768;28;20026;-76
2024/01/11 19:03:34;;;;;;;37.67;22.15;;;;;;;;;;4990842;28;20038;-75
2024/01/11 19:06:01;;;;;;;38.95;20.75;;;;;;;;;;4973005;28;20096;-76
2024/01/11 19:08:28;;;;;;;45.17;23.70;;;;;;;;;;4960350;28;20488;-76
2024/01/11 19:10:54;;;;;;;42.42;21.73;;;;;;;;;;4997871;28;20030;-76
2024/01/11 19:13:22;;;;;;;47.30;21.45;;;;;;;;;;5012736;28;20041;-76
2024/01/11 19:15:48;;;;;;;41.13;21.55;;;;;;;;;;4979902;28;20080;-76
2024/01/11 19:18:17;;;;;;;39.38;20.30;;;;;;;;;;4980395;28;20042;-76
2024/01/11 19:20:52;;;;;;;41.25;21.35;;;;;;;;;;4964903;28;20042;-75
2024/01/11 19:23:26;;;;;;;43.28;22.65;;;;;;;;;;4980817;28;20400;-75
2024/01/11 19:25:59;;;;;;;37.60;21.98;;;;;;;;;;4974306;28;84436;-75
2024/01/11 19:28:28;;;;;;;54.53;26.23;;;;;;;;;;4997940;28;20042;-76
2024/01/11 19:30:58;;;;;;;53.55;26.67;;;;;;;;;;4984538;28;20022;-77
2024/01/11 19:33:40;;;;;;;47.00;25.08;;;;;;;;;;4980015;28;20073;-78
2024/01/11 19:36:21;;;;;;;47.28;23.42;;;;;;;;;;4996927;28;20034;-77
2024/01/11 19:39:47;;;;;;;;;;;;;;;;;;;;;
2024/01/11 19:42:40;;;;;;;44.33;24.52;;;;;;;;;;4984416;28;20037;-78
2024/01/11 19:45:07;;;;;;;36.47;22.45;;;;;;;;;;4997970;28;20026;-78
2024/01/11 19:48:51;;;;;;;33.35;19.63;;;;;;;;;;4982480;28;20488;-77
2024/01/11 19:51:12;;;;;;;44.83;24.55;;;;;;;;;;4990551;28;20052;-77
2024/01/11 19:53:38;;;;;;;33.58;19.45;;;;;;;;;;4979291;28;20555;-78
2024/01/11 19:56:14;;;;;;;32.08;19.90;;;;;;;;;;4996380;28;20034;-77
2024/01/11 19:58:46;;;;;;;37.20;19.52;;;;;;;;;;4996974;28;20038;-77
2024/01/11 20:01:15;;;;;;;50.10;25.77;;;;;;;;;;5003529;28;20034;-77
2024/01/11 20:03:43;;;;;;;34.47;20.27;;;;;;;;;;4979820;28;20479;-76
2024/01/11 20:06:09;;;;;;;35.00;18.92;;;;;;;;;;4978729;28;20039;-75
2024/01/11 20:08:37;;;;;;;39.22;21.90;;;;;;;;;;4996961;28;20042;-75
2024/01/11 20:11:06;;;;;;;32.90;18.20;;;;;;;;;;4997972;28;20025;-77
2024/01/11 20:13:33;;;;;;;35.60;20.52;;;;;;;;;;4966816;28;20089;-75
2024/01/11 20:16:01;;;;;;;42.63;20.95;;;;;;;;;;5003091;28;20053;-77
2024/01/11 20:18:28;;;;;;;38.83;22.25;;;;;;;;;;4979644;28;20031;-78
2024/01/11 20:20:56;;;;;;;31.10;18.00;;;;;;;;;;4964217;28;20085;-77
2024/01/11 20:23:25;;;;;;;39.50;20.50;;;;;;;;;;4977177;28;20125;-78
2024/01/11 20:25:54;;;;;;;35.22;20.52;;;;;;;;;;4993975;28;20057;-78
2024/01/11 20:28:24;;;;;;;39.97;21.90;;;;;;;;;;4976812;28;20066;-78
2024/01/11 20:30:51;;;;;;;34.92;20.25;;;;;;;;;;4978902;28;20038;-77
2024/01/11 20:33:17;;;;;;;37.58;21.08;;;;;;;;;;4960487;28;20044;-77
2024/01/11 20:35:44;;;;;;;40.92;23.77;;;;;;;;;;4975667;28;20114;-77
2024/01/11 20:38:10;;;;;;;47.35;25.33;;;;;;;;;;4975479;28;20096;-77
2024/01/11 20:40:36;;;;;;;41.08;24.55;;;;;;;;;;4976461;28;20084;-77
2024/01/11 20:43:06;;;;;;;42.42;23.55;;;;;;;;;;4991924;28;20053;-76
2024/01/11 20:45:32;;;;;;;50.05;27.83;;;;;;;;;;4992752;28;20042;-76
2024/01/11 20:47:58;;;;;;;41.45;23.27;;;;;;;;;;4994975;28;20018;-75
2024/01/11 20:50:24;;;;;;;40.67;23.58;;;;;;;;;;5000214;28;20038;-76
2024/01/11 20:52:53;;;;;;;45.88;25.83;;;;;;;;;;4992755;28;20122;-77
2024/01/11 20:55:19;;;;;;;47.72;26.00;;;;;;;;;;4992801;28;20022;-74
2024/01/11 20:57:46;;;;;;;44.42;24.70;;;;;;;;;;4974536;28;20407;-75
2024/01/11 21:00:13;;;;;;;40.85;22.98;;;;;;;;;;4977218;28;20038;-76
2024/01/11 21:02:41;;;;;;;39.58;21.55;;;;;;;;;;4976777;28;20081;-76
2024/01/11 21:05:39;;;;;;;35.22;18.95;;;;;;;;;;4982104;28;20121;-76
2024/01/11 21:08:06;;;;;;;40.08;22.23;;;;;;;;;;5004445;28;20129;-76
2024/01/11 21:10:59;;;;;;;40.95;19.75;;;;;;;;;;4973515;28;20117;-76
2024/01/11 21:13:56;;;;;;;33.80;18.00;;;;;;;;;;4990652;28;20042;-76
2024/01/11 21:16:49;;;;;;;38.25;18.23;;;;;;;;;;4991374;28;20042;-76
2024/01/11 21:19:15;;;;;;;32.38;19.08;;;;;;;;;;4991770;28;20042;-75
2024/01/11 21:21:47;;;;;;;38.28;21.15;;;;;;;;;;5007101;28;20025;-75
2024/01/11 21:24:14;;;;;;;34.95;18.50;;;;;;;;;;4973611;28;20046;-75
2024/01/11 21:26:42;;;;;;;32.53;18.10;;;;;;;;;;4991296;28;20074;-75
2024/01/11 21:29:09;;;;;;;28.20;16.80;;;;;;;;;;4992645;28;20030;-75
2024/01/11 21:31:36;;;;;;;42.58;20.90;;;;;;;;;;4991157;28;20376;-75
2024/01/11 21:34:04;;;;;;;37.70;21.00;;;;;;;;;;4990957;28;20119;-75
2024/01/11 21:36:34;;;;;;;104.38;49.67;;;;;;;;;;4975707;28;20033;-75
2024/01/11 21:39:02;;;;;;;42.08;23.75;;;;;;;;;;4991969;28;20050;-75
2024/01/11 21:41:29;;;;;;;47.78;25.73;;;;;;;;;;5007367;28;20570;-75
2024/01/11 21:43:57;;;;;;;50.53;26.60;;;;;;;;;;4991777;28;20109;-75
2024/01/11 21:46:30;;;;;;;51.42;25.95;;;;;;;;;;4997452;28;20113;-75
2024/01/11 21:48:57;;;;;;;54.78;27.95;;;;;;;;;;4991911;28;20521;-75
2024/01/11 21:51:23;;;;;;;51.15;28.38;;;;;;;;;;4990329;28;20042;-75
2024/01/11 21:53:57;;;;;;;51.03;28.20;;;;;;;;;;4991482;28;20034;-75
2024/01/11 21:56:29;;;;;;;;;;;;;;;;;;4976836;28;20076;-75
2024/01/11 21:58:56;;;;;;;45.25;22.55;;;;;;;;;;4975242;28;19946;-75
2024/01/11 22:01:26;;;;;;;44.00;24.75;;;;;;;;;;4992018;28;20073;-75
2024/01/11 22:03:56;;;;;;;45.85;24.65;;;;;;;;;;4989638;28;20100;-75
2024/01/11 22:06:44;;;;;;;36.83;21.00;;;;;;;;;;4974858;28;20045;-75
2024/01/11 22:09:17;;;;;;;40.42;21.23;;;;;;;;;;4991446;28;20045;-76
2024/01/11 22:11:45;;;;;;;43.55;24.15;;;;;;;;;;4991371;28;20030;-75
2024/01/11 22:14:11;;;;;;;34.25;18.90;;;;;;;;;;4973937;28;20038;-75
2024/01/11 22:16:37;;;;;;;32.53;18.38;;;;;;;;;;4974469;28;20030;-75
2024/01/11 22:19:08;;;;;;;34.15;18.92;;;;;;;;;;4990683;28;20045;-75
2024/01/11 22:21:44;;;;;;;36.17;18.85;;;;;;;;;;4973979;28;20030;-75
2024/01/11 22:24:15;;;;;;;35.47;19.80;;;;;;;;;;4990298;28;20042;-76
2024/01/11 22:27:21;;;;;;;35.55;17.42;;;;;;;;;;4991040;28;20495;-76
2024/01/11 22:29:47;;;;;;;27.63;14.90;;;;;;;;;;4980096;28;20030;-75
2024/01/11 22:32:14;;;;;;;27.15;16.08;;;;;;;;;;4977452;28;20156;-75
2024/01/11 22:34:40;;;;;;;31.63;18.08;;;;;;;;;;4955375;28;20499;-75
2024/01/11 22:37:09;;;;;;;32.42;18.20;;;;;;;;;;4991227;28;20034;-75
2024/01/11 22:39:35;;;;;;;39.22;18.55;;;;;;;;;;4973171;28;20037;-75
2024/01/11 22:42:02;;;;;;;33.80;20.02;;;;;;;;;;4990998;28;20112;-74
2024/01/11 22:44:31;;;;;;;41.55;21.05;;;;;;;;;;4990503;28;20049;-76
2024/01/11 22:47:02;;;;;;;41.22;21.70;;;;;;;;;;4991214;28;20030;-77
2024/01/11 22:49:34;;;;;;;37.80;19.48;;;;;;;;;;4974403;28;20084;-75
2024/01/11 22:52:00;;;;;;;35.22;20.67;;;;;;;;;;4976391;28;20041;-74
2024/01/11 22:54:27;;;;;;;38.85;19.33;;;;;;;;;;4957079;28;20072;-75
2024/01/11 22:56:55;;;;;;;29.92;17.55;;;;;;;;;;4990604;28;20022;-74
2024/01/11 22:59:21;;;;;;;39.35;20.40;;;;;;;;;;4973696;28;20125;-75
2024/01/11 23:01:48;;;;;;;33.47;18.77;;;;;;;;;;4989279;28;20030;-76
2024/01/11 23:04:14;;;;;;;37.08;20.77;;;;;;;;;;4972769;28;20082;-75
2024/01/11 23:06:41;;;;;;;37.45;20.75;;;;;;;;;;4973035;28;20066;-75
2024/01/11 23:09:11;;;;;;;44.97;20.05;;;;;;;;;;4990535;28;20029;-75
2024/01/11 23:11:38;;;;;;;36.65;20.70;;;;;;;;;;4989727;28;20030;-75
2024/01/11 23:14:07;;;;;;;34.47;19.88;;;;;;;;;;4972754;28;20104;-76
2024/01/11 23:16:36;;;;;;;37.33;19.77;;;;;;;;;;4991383;28;20034;-75
2024/01/11 23:19:02;;;;;;;37.55;21.80;;;;;;;;;;4990882;28;20069;-75
2024/01/11 23:21:29;;;;;;;37.35;20.05;;;;;;;;;;4973338;28;20034;-75
2024/01/11 23:23:56;;;;;;;48.15;23.90;;;;;;;;;;4989629;28;20053;-75
2024/01/11 23:26:22;;;;;;;40.70;21.88;;;;;;;;;;4989586;28;20034;-75
2024/01/11 23:28:49;;;;;;;42.65;24.65;;;;;;;;;;4976611;28;20034;-75
2024/01/11 23:31:21;;;;;;;40.28;21.88;;;;;;;;;;4958289;28;20084;-74
2024/01/11 23:34:03;;;;;;;48.38;25.00;;;;;;;;;;4989680;28;20181;-75